Overview Statistics Trail Chart Weather Telemetry Raw packets
 

This is the latest recevied weather packets stored in our database for station/object WA1TYB-13. If no packets are shown the sender has not sent any weather packets the latest 10 day(s).

<< 96 97 98 99 100 101 102 >>
Time Temp. Humidity Pressure Rain* Wind** Luminosity Snow
1787891035 21.11° C 48% 1016.7 hPa 0 mm - 0 W/m² -
1787890735 21.67° C 45% 1016.7 hPa 0 mm - 0 W/m² -
1787890429 22.22° C 44% 1016.5 hPa 0 mm - 0 W/m² -
1787890125 22.78° C 42% 1016.5 hPa 0 mm - 0 W/m² -
1787889824 22.78° C 42% 1016.6 hPa 0 mm - 0 W/m² -
1787889520 22.78° C 42% 1016.2 hPa 0 mm - 0 W/m² -
1787889219 23.33° C 40% 1016.1 hPa 0 mm - 0 W/m² -
1787888914 23.89° C 38% 1016 hPa 0 mm - 0 W/m² -
1787888610 25° C 30% 1016.1 hPa 0 mm - 0 W/m² -
1787888304 24.44° C 33% 1015.8 hPa 0 mm - 0 W/m² -
1787888000 25° C 31% 1015.3 hPa 0 mm - 0 W/m² -
1787887696 25.56° C 30% 1015.1 hPa 0 mm - 0 W/m² -
1787887391 25.56° C 29% 1015.1 hPa 0 mm - 0 W/m² -
1787887091 26.11° C 28% 1015.1 hPa 0 mm - 0 W/m² -
1787886786 26.11° C 27% 1015.3 hPa 0 mm - 0 W/m² -
1787886485 26.11° C 27% 1015.1 hPa 0 mm - 0 W/m² -
1787886181 26.11° C 27% 1015.1 hPa 0 mm - 0 W/m² -
1787885880 25.56° C 28% 1014.8 hPa 0 mm - 0 W/m² -
1787885579 25.56° C 28% 1015 hPa 0 mm - 0 W/m² -
1787885278 26.11° C 27% 1015 hPa 0 mm - 0 W/m² -
1787884973 26.11° C 26% 1014.8 hPa 0 mm - 0 W/m² -
1787884673 26.67° C 26% 1014.7 hPa 0 mm - 0 W/m² -
1787884369 26.67° C 25% 1014.8 hPa 0 mm - 0 W/m² -
1787884069 27.22° C 24% 1014.9 hPa 0 mm - 0 W/m² -
1787883764 27.22° C 24% 1015 hPa 0 mm - 0 W/m² -

* Rain latest hour (hover to see other rain measurements)
** Current wind speed in m/s (hover to see current wind gust speed)